Time;durP1;ratioP1;P1;durP2;ratioP2;P2;SDS_P1;SDS_P2;PMS_P1;PMS_P2;Temp;Humidity;BMP_temperature;BMP_pressure;BME280_temperature;BME280_humidity;BME280_pressure;Samples;Min_cycle;Max_cycle;Signal;HPM_P1;HPM_P2
2022/01/25 00:25:21;;;;;;;1.20;1.17;;;0.60;99.90;;;;;;5283402;28;20019;-75
2022/01/25 00:28:05;;;;;;;0.80;0.80;;;0.50;99.90;;;;;;5264306;28;20094;-75
2022/01/25 00:31:17;;;;;;;2.60;2.50;;;0.40;99.90;;;;;;5283710;28;20040;-75
2022/01/25 00:33:32;;;;;;;0.70;0.70;;;0.40;99.90;;;;;;5272019;28;20051;-75
2022/01/25 00:36:09;;;;;;;1.27;1.27;;;0.30;99.90;;;;;;5262911;28;20108;-75
2022/01/25 00:38:42;;;;;;;0.73;0.73;;;0.40;99.90;;;;;;5275214;28;20020;-75
2022/01/25 00:41:14;;;;;;;1.42;1.42;;;0.40;99.90;;;;;;5264821;28;20023;-74
2022/01/25 00:43:45;;;;;;;0.63;0.63;;;0.50;99.90;;;;;;5281146;28;20023;-75
2022/01/25 00:46:22;;;;;;;2.38;2.28;;;0.40;99.90;;;;;;5281171;28;20016;-75
2022/01/25 00:49:00;;;;;;;2.03;1.95;;;0.50;99.90;;;;;;5281067;28;20024;-74
2022/01/25 00:54:16;;;;;;;1.17;1.13;;;0.60;99.90;;;;;;5282741;28;20023;-75
2022/01/25 00:56:50;;;;;;;3.83;3.53;;;0.70;99.90;;;;;;5286186;28;20015;-76
2022/01/25 00:59:30;;;;;;;0.70;0.70;;;0.80;99.90;;;;;;5262828;28;20024;-75
2022/01/25 01:02:13;;;;;;;2.25;2.15;;;0.90;99.90;;;;;;5247392;28;20035;-75
2022/01/25 01:04:47;;;;;;;1.77;1.73;;;0.90;99.90;;;;;;5263486;28;20044;-75
2022/01/25 01:07:17;;;;;;;1.13;1.13;;;1.00;99.90;;;;;;5266425;28;20035;-75
2022/01/25 01:09:51;;;;;;;2.10;2.00;;;1.10;99.90;;;;;;5267717;28;20472;-75
2022/01/25 01:29:41;;;;;;;1.05;1.05;;;0.90;99.90;;;;;;5281538;28;20016;-75
2022/01/25 01:32:12;;;;;;;1.23;1.23;;;1.00;99.90;;;;;;5275508;28;20302;-75
2022/01/25 01:37:35;;;;;;;1.83;1.73;;;0.90;99.90;;;;;;5263557;28;20024;-75
2022/01/25 01:46:01;;;;;;;1.33;1.33;;;0.80;99.90;;;;;;5263336;28;20214;-75
2022/01/25 01:48:42;;;;;;;1.05;1.05;;;0.80;99.90;;;;;;5279947;28;20050;-75
2022/01/25 01:51:17;;;;;;;2.95;2.25;;;0.80;99.90;;;;;;5285958;28;20059;-75
2022/01/25 01:53:48;;;;;;;1.10;1.10;;;0.70;99.90;;;;;;5284855;28;20023;-74
2022/01/25 01:56:21;;;;;;;1.02;1.02;;;0.80;99.90;;;;;;5282077;28;20046;-75
2022/01/25 01:59:03;;;;;;;2.63;2.42;;;0.70;99.90;;;;;;5283863;28;20086;-76
2022/01/25 02:01:36;;;;;;;1.02;1.02;;;0.70;99.90;;;;;;5263382;28;20034;-75
2022/01/25 02:04:08;;;;;;;0.60;0.60;;;0.70;99.90;;;;;;5265802;28;20028;-75
2022/01/25 02:06:39;;;;;;;1.10;1.10;;;0.60;99.90;;;;;;5239434;28;20052;-74
2022/01/25 02:09:14;;;;;;;1.17;1.17;;;0.70;99.90;;;;;;5261835;28;20028;-75
2022/01/25 02:11:45;;;;;;;1.70;1.60;;;0.70;99.90;;;;;;5237163;28;20573;-77
2022/01/25 02:14:18;;;;;;;0.82;0.82;;;0.70;99.90;;;;;;5255385;28;20030;-75
2022/01/25 02:22:32;;;;;;;1.48;1.48;;;0.70;99.90;;;;;;5262355;28;20351;-75
2022/01/25 02:25:03;;;;;;;1.70;1.65;;;0.70;99.90;;;;;;5268856;28;20023;-74
2022/01/25 02:27:41;;;;;;;0.98;0.98;;;0.80;99.90;;;;;;5283246;28;20023;-75
2022/01/25 02:30:12;;;;;;;1.67;1.58;;;0.80;99.90;;;;;;5273438;28;20069;-76
2022/01/25 02:32:51;;;;;;;5.32;3.40;;;0.80;99.90;;;;;;5263376;28;20259;-76
2022/01/25 02:35:22;;;;;;;0.50;0.50;;;0.80;99.90;;;;;;5266455;28;20072;-77
2022/01/25 02:37:53;;;;;;;2.00;1.90;;;0.90;99.90;;;;;;5283712;28;20138;-75
2022/01/25 02:40:27;;;;;;;2.30;2.20;;;0.90;99.90;;;;;;5283711;28;20102;-75
2022/01/25 02:42:57;;;;;;;0.82;0.82;;;0.90;99.90;;;;;;5281596;28;20059;-75
2022/01/25 02:45:34;;;;;;;1.42;1.42;;;0.90;99.90;;;;;;5280215;28;20023;-75
2022/01/25 02:51:11;;;;;;;1.38;1.30;;;0.90;99.90;;;;;;5200063;28;20209;-75
2022/01/25 02:53:44;;;;;;;1.38;1.20;;;0.90;99.90;;;;;;5183239;28;20065;-75
2022/01/25 02:56:17;;;;;;;2.47;2.30;;;0.90;99.90;;;;;;5217677;28;20032;-74
2022/01/25 02:58:48;;;;;;;1.92;1.83;;;0.80;99.90;;;;;;5210541;28;20064;-75
2022/01/25 03:01:22;;;;;;;0.75;0.75;;;0.90;99.90;;;;;;5164394;28;20018;-75
2022/01/25 03:03:55;;;;;;;1.02;1.02;;;1.00;99.90;;;;;;5205705;28;20063;-75
2022/01/25 03:06:27;;;;;;;1.58;1.42;;;1.00;99.90;;;;;;5191158;28;20037;-75
2022/01/25 03:08:57;;;;;;;1.77;1.60;;;1.00;99.90;;;;;;5217454;28;20159;-75
2022/01/25 03:11:28;;;;;;;0.95;0.95;;;1.00;99.90;;;;;;5200313;28;20025;-75
2022/01/25 03:14:06;;;;;;;1.17;1.17;;;1.10;99.90;;;;;;5202894;28;20507;-75
2022/01/25 03:16:43;;;;;;;0.50;0.50;;;1.10;99.90;;;;;;5218296;28;20089;-74
2022/01/25 03:19:45;;;;;;;1.45;1.40;;;1.10;99.90;;;;;;5200972;28;20033;-75
2022/01/25 03:23:05;;;;;;;1.95;1.67;;;1.10;99.90;;;;;;5213805;28;20028;-77
2022/01/25 03:25:08;;;;;;;0.50;0.50;;;1.10;99.90;;;;;;5231189;28;20055;-75
2022/01/25 03:27:39;;;;;;;1.55;1.55;;;1.20;99.90;;;;;;5247099;28;20038;-76
2022/01/25 03:30:10;;;;;;;0.77;0.77;;;1.20;99.90;;;;;;5282067;28;20453;-75
2022/01/25 03:32:41;;;;;;;0.88;0.88;;;1.20;99.90;;;;;;5282510;28;20082;-76
2022/01/25 03:35:12;;;;;;;1.35;1.35;;;1.20;99.90;;;;;;5264523;28;20045;-74
2022/01/25 03:37:43;;;;;;;0.70;0.70;;;1.20;99.90;;;;;;5265741;28;20027;-76
2022/01/25 03:40:14;;;;;;;0.80;0.80;;;1.30;99.90;;;;;;5282751;28;20027;-76
2022/01/25 03:42:45;;;;;;;1.00;1.00;;;1.30;99.90;;;;;;5282047;28;20016;-74
2022/01/25 03:45:21;;;;;;;1.35;1.35;;;1.30;99.90;;;;;;5247376;28;20099;-75
2022/01/25 03:50:50;;;;;;;3.08;2.85;;;1.30;99.90;;;;;;5231561;28;20099;-75
2022/01/25 03:53:21;;;;;;;1.10;1.05;;;1.30;99.90;;;;;;5260490;28;20031;-75
2022/01/25 03:55:52;;;;;;;2.45;1.92;;;1.30;99.90;;;;;;5273454;28;20011;-77
2022/01/25 03:58:23;;;;;;;2.05;1.60;;;1.20;99.90;;;;;;5254591;28;20027;-75
2022/01/25 04:00:54;;;;;;;2.33;1.95;;;1.20;99.90;;;;;;5263966;28;20293;-75
2022/01/25 04:03:32;;;;;;;1.15;1.15;;;1.20;99.90;;;;;;5280568;28;20043;-75
2022/01/25 04:06:06;;;;;;;0.80;0.80;;;1.30;99.90;;;;;;5237360;28;20044;-75
2022/01/25 04:08:37;;;;;;;1.00;1.00;;;1.30;99.90;;;;;;5263727;28;20035;-75
2022/01/25 04:11:08;;;;;;;1.67;1.58;;;1.30;99.90;;;;;;5247607;28;20036;-75
2022/01/25 04:13:41;;;;;;;1.50;1.50;;;1.30;99.90;;;;;;5280480;28;20024;-75
2022/01/25 04:16:19;;;;;;;1.17;1.17;;;1.20;99.90;;;;;;5264563;28;20024;-76
2022/01/25 04:19:12;;;;;;;1.02;1.02;;;1.30;99.90;;;;;;5262650;28;20268;-76
2022/01/25 04:27:37;;;;;;;1.15;1.15;;;1.30;99.90;;;;;;5280544;28;20049;-77
2022/01/25 04:30:10;;;;;;;0.95;0.95;;;1.30;99.90;;;;;;5263147;28;20466;-76
2022/01/25 04:32:59;;;;;;;0.80;0.80;;;1.30;99.90;;;;;;5264484;28;20035;-75
2022/01/25 04:49:32;;;;;;;0.80;0.80;;;1.20;99.90;;;;;;5288210;27;20052;-75
2022/01/25 04:52:15;;;;;;;1.00;1.00;;;1.20;99.90;;;;;;5305620;27;20432;-76
2022/01/25 04:55:06;;;;;;;1.25;1.25;;;1.20;99.90;;;;;;5268377;28;20083;-75
2022/01/25 05:00:19;;;;;;;5.57;3.70;;;1.30;99.90;;;;;;5284761;28;20024;-76
2022/01/25 05:03:06;;;;;;;1.10;1.10;;;1.30;99.90;;;;;;5287999;27;20022;-77
2022/01/25 05:05:56;;;;;;;0.90;0.90;;;1.30;99.90;;;;;;5252428;28;20055;-77
2022/01/25 05:08:47;;;;;;;1.42;1.42;;;1.30;99.90;;;;;;5263342;28;20394;-77
2022/01/25 05:11:31;;;;;;;1.25;1.25;;;1.40;99.90;;;;;;5252702;28;20024;-76
2022/01/25 05:16:49;;;;;;;1.17;1.17;;;1.50;99.90;;;;;;5305126;27;20032;-77
2022/01/25 05:22:18;;;;;;;0.63;0.63;;;1.50;99.90;;;;;;5289972;27;20213;-77
2022/01/25 05:24:50;;;;;;;1.70;1.60;;;1.40;99.90;;;;;;5261449;28;20028;-77
2022/01/25 05:27:29;;;;;;;0.85;0.85;;;1.40;99.90;;;;;;5284304;28;20035;-77
2022/01/25 05:30:03;;;;;;;1.75;1.67;;;1.40;99.90;;;;;;5265880;28;20036;-77
2022/01/25 05:32:34;;;;;;;1.85;1.75;;;1.50;99.90;;;;;;5247085;28;20442;-77
2022/01/25 05:35:05;;;;;;;2.25;2.15;;;1.50;99.90;;;;;;5284128;28;20338;-77
2022/01/25 05:37:41;;;;;;;1.80;1.73;;;1.50;99.90;;;;;;5285447;28;20115;-74
2022/01/25 05:40:28;;;;;;;1.50;1.50;;;1.60;99.90;;;;;;5285066;28;20015;-77
2022/01/25 05:48:24;;;;;;;1.83;1.60;;;1.50;99.90;;;;;;5284298;28;20031;-75
2022/01/25 05:50:55;;;;;;;1.13;1.13;;;1.40;99.90;;;;;;5266101;28;20031;-75
2022/01/25 05:53:26;;;;;;;1.60;1.52;;;1.40;99.90;;;;;;5279397;28;20024;-76
2022/01/25 05:56:00;;;;;;;0.80;0.80;;;1.40;99.90;;;;;;5265123;28;20355;-75
2022/01/25 05:58:36;;;;;;;1.98;1.88;;;1.40;99.90;;;;;;5268822;28;20628;-76
2022/01/25 06:01:09;;;;;;;1.08;1.08;;;1.40;99.90;;;;;;5263347;28;20349;-77
2022/01/25 06:03:42;;;;;;;2.90;2.75;;;1.50;99.90;;;;;;5265674;28;20038;-76
2022/01/25 06:06:13;;;;;;;0.60;0.60;;;1.60;99.90;;;;;;5256004;28;20036;-77
2022/01/25 06:08:46;;;;;;;0.73;0.73;;;1.60;99.90;;;;;;5283846;28;20462;-77
2022/01/25 06:11:16;;;;;;;0.88;0.88;;;1.60;99.90;;;;;;5264570;28;20508;-76
2022/01/25 06:13:47;;;;;;;0.90;0.90;;;1.60;99.90;;;;;;5281823;28;20015;-76
2022/01/25 06:16:21;;;;;;;1.90;1.80;;;1.60;99.90;;;;;;5263860;28;20145;-77
2022/01/25 06:18:54;;;;;;;0.60;0.60;;;1.70;99.90;;;;;;5264854;28;20094;-77
2022/01/25 06:21:33;;;;;;;3.17;2.90;;;1.70;99.90;;;;;;5282470;28;20024;-76
2022/01/25 06:24:10;;;;;;;1.27;1.27;;;1.70;99.90;;;;;;5265279;28;20036;-76
2022/01/25 06:26:49;;;;;;;2.25;2.15;;;1.70;99.90;;;;;;5266380;28;20011;-76
2022/01/25 06:29:20;;;;;;;0.82;0.82;;;1.70;99.90;;;;;;5264411;28;20098;-76
2022/01/25 06:31:56;;;;;;;1.42;1.33;;;1.70;99.90;;;;;;5246373;28;20148;-75
2022/01/25 06:34:27;;;;;;;1.95;1.85;;;1.70;99.90;;;;;;5261720;28;20311;-76
2022/01/25 06:36:58;;;;;;;1.75;1.65;;;1.60;99.90;;;;;;5245552;28;20094;-75
2022/01/25 06:39:31;;;;;;;3.60;3.30;;;1.50;99.90;;;;;;5260108;28;20015;-75
2022/01/25 06:42:02;;;;;;;2.42;2.33;;;1.50;99.90;;;;;;5265580;28;20047;-75
2022/01/25 06:44:35;;;;;;;0.70;0.70;;;1.40;99.90;;;;;;5283240;28;20087;-75
2022/01/25 06:47:09;;;;;;;1.30;1.30;;;1.50;99.90;;;;;;5251833;28;20055;-77
2022/01/25 06:49:39;;;;;;;0.70;0.70;;;1.50;99.90;;;;;;5265372;28;20027;-75
2022/01/25 06:52:11;;;;;;;0.68;0.68;;;1.50;99.90;;;;;;5269422;28;20036;-74
2022/01/25 06:54:47;;;;;;;0.70;0.70;;;1.60;99.90;;;;;;5275934;28;20023;-74
2022/01/25 06:57:18;;;;;;;2.70;2.50;;;1.60;99.90;;;;;;5260641;28;20087;-76
2022/01/25 06:59:49;;;;;;;0.40;0.40;;;1.60;99.90;;;;;;5243994;28;20097;-75
2022/01/25 07:02:22;;;;;;;2.20;2.10;;;1.50;99.90;;;;;;5261608;28;20019;-74
2022/01/25 07:05:01;;;;;;;0.60;0.60;;;1.50;99.90;;;;;;5251073;28;20044;-76
2022/01/25 07:07:34;;;;;;;0.88;0.88;;;1.50;99.90;;;;;;5254846;28;20488;-75
2022/01/25 07:10:09;;;;;;;0.60;0.60;;;1.60;99.90;;;;;;5266029;28;20031;-76
2022/01/25 07:12:40;;;;;;;0.60;0.60;;;1.60;99.90;;;;;;5259101;28;20058;-77
2022/01/25 07:15:14;;;;;;;0.80;0.80;;;1.60;99.90;;;;;;5290438;27;20030;-76
2022/01/25 07:17:47;;;;;;;2.03;1.92;;;1.60;99.90;;;;;;5276312;28;20031;-75
2022/01/25 07:20:18;;;;;;;1.88;1.20;;;1.60;99.90;;;;;;5281332;28;20397;-74
2022/01/25 07:22:52;;;;;;;0.63;0.63;;;1.70;99.90;;;;;;5280376;28;20083;-74
2022/01/25 07:25:26;;;;;;;0.60;0.60;;;1.70;99.90;;;;;;5264631;28;20203;-75
2022/01/25 07:28:01;;;;;;;1.85;1.75;;;1.70;99.90;;;;;;5255970;28;20063;-74
2022/01/25 07:30:35;;;;;;;1.80;1.70;;;1.80;99.90;;;;;;5275336;28;20020;-74
2022/01/25 07:33:07;;;;;;;0.95;0.95;;;1.80;99.90;;;;;;5264321;28;20031;-74
2022/01/25 07:35:40;;;;;;;1.30;1.30;;;1.70;99.90;;;;;;5279236;28;20027;-76
2022/01/25 07:38:17;;;;;;;0.50;0.50;;;1.70;99.90;;;;;;5282839;28;20024;-74
2022/01/25 07:40:48;;;;;;;0.98;0.98;;;1.70;99.90;;;;;;5279428;28;20016;-74
2022/01/25 07:43:21;;;;;;;0.60;0.60;;;1.70;99.90;;;;;;5283496;28;20346;-76
2022/01/25 07:45:54;;;;;;;0.63;0.63;;;1.60;99.90;;;;;;5264970;28;20064;-75
2022/01/25 07:48:29;;;;;;;0.70;0.70;;;1.60;99.90;;;;;;5281712;28;20348;-75
2022/01/25 07:51:03;;;;;;;0.50;0.50;;;1.60;99.90;;;;;;5265273;28;20043;-74
2022/01/25 07:53:34;;;;;;;1.10;1.10;;;1.60;99.90;;;;;;5265045;28;20024;-75
2022/01/25 07:56:07;;;;;;;0.60;0.60;;;1.70;99.90;;;;;;5276122;28;20031;-74
2022/01/25 07:58:38;;;;;;;0.50;0.50;;;1.60;99.90;;;;;;5257571;28;20050;-76
2022/01/25 08:01:12;;;;;;;0.60;0.60;;;1.70;99.90;;;;;;5281064;28;20313;-75
2022/01/25 08:03:44;;;;;;;0.68;0.68;;;1.70;99.90;;;;;;5268023;28;20019;-76
2022/01/25 08:06:15;;;;;;;0.50;0.50;;;1.70;99.90;;;;;;5255824;28;20079;-75
2022/01/25 08:08:49;;;;;;;1.33;1.33;;;1.70;99.90;;;;;;5261936;28;20130;-74
2022/01/25 08:11:22;;;;;;;1.10;1.10;;;1.80;99.90;;;;;;5288219;28;20094;-74
2022/01/25 08:14:00;;;;;;;0.60;0.60;;;1.70;99.90;;;;;;5288878;28;20072;-76
2022/01/25 08:16:33;;;;;;;0.50;0.50;;;1.60;99.90;;;;;;5286028;28;20185;-76
2022/01/25 08:19:07;;;;;;;1.38;1.38;;;1.70;99.90;;;;;;5262491;28;20337;-74
2022/01/25 08:21:44;;;;;;;2.10;1.95;;;1.70;99.90;;;;;;5267709;28;20294;-74
2022/01/25 08:24:20;;;;;;;1.00;1.00;;;1.80;99.90;;;;;;5248738;28;20028;-74
2022/01/25 08:26:54;;;;;;;0.90;0.90;;;1.80;99.90;;;;;;5266948;28;20285;-74
2022/01/25 08:29:25;;;;;;;0.60;0.60;;;1.80;99.90;;;;;;5267480;28;20032;-75
2022/01/25 08:32:01;;;;;;;0.60;0.60;;;1.80;99.90;;;;;;5273303;28;20020;-75
2022/01/25 08:34:31;;;;;;;0.90;0.90;;;1.80;99.90;;;;;;5286533;28;20061;-74
2022/01/25 08:37:02;;;;;;;0.65;0.65;;;1.80;99.90;;;;;;5270042;28;20251;-75
2022/01/25 08:39:33;;;;;;;1.48;1.48;;;1.70;99.90;;;;;;5249316;28;20032;-75
2022/01/25 08:42:04;;;;;;;1.35;1.25;;;1.60;99.90;;;;;;5259722;27;20019;-74
2022/01/25 08:44:36;;;;;;;0.60;0.60;;;1.70;99.90;;;;;;5301504;27;20091;-75
2022/01/25 08:47:07;;;;;;;0.77;0.77;;;1.80;99.90;;;;;;5283564;28;20035;-75
2022/01/25 08:49:41;;;;;;;0.60;0.60;;;1.70;99.90;;;;;;5250290;28;20384;-74
2022/01/25 08:52:12;;;;;;;0.50;0.50;;;1.70;99.90;;;;;;5267187;28;20023;-74
2022/01/25 08:54:42;;;;;;;0.70;0.70;;;1.70;99.90;;;;;;5283056;28;20062;-74
2022/01/25 08:57:15;;;;;;;0.45;0.45;;;1.80;99.90;;;;;;5268592;28;20027;-75
2022/01/25 08:59:47;;;;;;;0.53;0.53;;;1.80;99.90;;;;;;5287374;28;20042;-76
2022/01/25 09:02:20;;;;;;;0.60;0.60;;;1.90;99.90;;;;;;5264559;28;20267;-75
2022/01/25 09:04:53;;;;;;;0.63;0.63;;;1.90;99.90;;;;;;5249517;28;20372;-74
2022/01/25 09:07:24;;;;;;;1.20;1.20;;;1.90;99.90;;;;;;5274079;28;20035;-75
2022/01/25 09:09:55;;;;;;;0.50;0.50;;;1.90;99.90;;;;;;5268014;28;20039;-74
2022/01/25 09:12:28;;;;;;;0.55;0.55;;;2.00;99.90;;;;;;5285329;28;20016;-74
2022/01/25 09:14:59;;;;;;;0.50;0.50;;;1.90;99.90;;;;;;5276456;28;20047;-74
2022/01/25 09:17:32;;;;;;;0.50;0.50;;;1.90;99.90;;;;;;5268924;28;20057;-74
2022/01/25 09:20:06;;;;;;;0.60;0.60;;;1.90;99.90;;;;;;5286681;28;20156;-74
2022/01/25 09:22:39;;;;;;;0.50;0.50;;;1.80;99.90;;;;;;5279927;27;20033;-74
2022/01/25 09:25:13;;;;;;;0.63;0.63;;;1.90;99.90;;;;;;5308168;27;20079;-74
2022/01/25 09:27:44;;;;;;;0.63;0.63;;;1.80;99.90;;;;;;5290408;27;20023;-74
2022/01/25 09:30:17;;;;;;;0.73;0.73;;;1.80;99.90;;;;;;5290625;27;20381;-74
2022/01/25 09:32:48;;;;;;;0.77;0.77;;;1.80;99.90;;;;;;5287155;28;20023;-74
2022/01/25 09:35:18;;;;;;;0.40;0.40;;;1.80;99.90;;;;;;5286261;28;20038;-73
2022/01/25 09:37:50;;;;;;;0.60;0.60;;;1.80;99.90;;;;;;5286827;28;20054;-73
2022/01/25 09:40:21;;;;;;;0.52;0.52;;;1.80;99.90;;;;;;5267548;28;20035;-73
2022/01/25 09:42:57;;;;;;;0.60;0.60;;;1.80;99.90;;;;;;5284139;28;20036;-73
2022/01/25 09:45:29;;;;;;;0.45;0.45;;;1.90;99.90;;;;;;5276332;28;20043;-73
2022/01/25 09:48:03;;;;;;;0.70;0.70;;;1.90;99.90;;;;;;5286176;28;20477;-76
2022/01/25 09:50:37;;;;;;;1.23;0.88;;;2.00;99.90;;;;;;5268260;28;20015;-73
2022/01/25 09:53:13;;;;;;;0.55;0.55;;;2.10;99.90;;;;;;5286672;28;20030;-73
2022/01/25 09:55:46;;;;;;;0.70;0.70;;;2.10;99.90;;;;;;5286054;28;20175;-73
2022/01/25 09:58:22;;;;;;;0.60;0.60;;;2.10;99.90;;;;;;5285022;28;20415;-73
2022/01/25 10:01:00;;;;;;;0.60;0.60;;;2.10;99.90;;;;;;5266270;28;20473;-73
2022/01/25 10:03:36;;;;;;;0.70;0.70;;;1.90;99.90;;;;;;5285676;28;20023;-73
2022/01/25 10:06:14;;;;;;;1.33;1.25;;;2.00;99.90;;;;;;5274030;28;20558;-73
2022/01/25 10:08:49;;;;;;;0.50;0.50;;;2.00;99.90;;;;;;5267685;28;20058;-73
2022/01/25 10:11:23;;;;;;;;;;;2.00;99.90;;;;;;5266918;28;20053;-72
2022/01/25 10:13:57;;;;;;;0.50;0.50;;;2.00;99.90;;;;;;5276977;28;19900;-72
2022/01/25 10:16:38;;;;;;;0.80;0.80;;;2.00;99.90;;;;;;5283260;28;20340;-72
2022/01/25 10:19:11;;;;;;;1.92;1.83;;;2.10;99.90;;;;;;5267536;28;20333;-74
2022/01/25 10:21:49;;;;;;;0.68;0.68;;;2.10;99.90;;;;;;5285773;28;20030;-73
2022/01/25 10:24:24;;;;;;;1.48;1.42;;;2.10;99.90;;;;;;5267617;28;20566;-73
2022/01/25 10:26:57;;;;;;;0.60;0.60;;;2.10;99.90;;;;;;5283809;28;20034;-73
2022/01/25 10:29:30;;;;;;;0.40;0.40;;;2.10;99.90;;;;;;5266733;28;20253;-73
2022/01/25 10:32:05;;;;;;;1.75;1.67;;;2.20;99.90;;;;;;5285253;28;20232;-73
2022/01/25 10:34:44;;;;;;;0.77;0.77;;;2.10;99.90;;;;;;5284512;28;20168;-73
2022/01/25 10:37:17;;;;;;;0.50;0.50;;;2.10;99.90;;;;;;5282300;28;20240;-72
2022/01/25 10:39:51;;;;;;;1.30;1.30;;;2.10;99.90;;;;;;5283292;28;20084;-73
2022/01/25 10:42:30;;;;;;;0.75;0.75;;;2.10;99.90;;;;;;5268643;28;20222;-73
2022/01/25 10:45:05;;;;;;;0.60;0.60;;;2.10;99.90;;;;;;5282361;28;20034;-73
2022/01/25 10:47:49;;;;;;;0.60;0.60;;;2.00;99.90;;;;;;5282643;28;20145;-73
2022/01/25 10:50:23;;;;;;;0.85;0.85;;;2.00;99.90;;;;;;5263217;28;20327;-72
2022/01/25 10:53:11;;;;;;;0.60;0.60;;;2.00;99.90;;;;;;5258532;28;20019;-73
2022/01/25 10:56:00;;;;;;;0.50;0.50;;;2.20;99.90;;;;;;5264662;28;20066;-72
2022/01/25 10:58:36;;;;;;;0.88;0.88;;;2.20;99.90;;;;;;5245842;28;20054;-72
2022/01/25 11:01:11;;;;;;;0.75;0.75;;;2.20;99.90;;;;;;5282398;28;20087;-73
2022/01/25 11:03:50;;;;;;;0.50;0.50;;;2.30;99.90;;;;;;5263981;28;20040;-72
2022/01/25 11:06:25;;;;;;;0.60;0.60;;;2.20;99.90;;;;;;5255159;28;20043;-72
2022/01/25 11:09:00;;;;;;;0.68;0.68;;;2.20;99.90;;;;;;5282975;28;20125;-72
2022/01/25 11:11:45;;;;;;;1.50;1.48;;;2.30;99.90;;;;;;5274877;28;20092;-74
2022/01/25 11:17:09;;;;;;;0.50;0.50;;;2.20;99.90;;;;;;5283047;28;20559;-72
2022/01/25 11:19:41;;;;;;;0.70;0.70;;;2.30;99.90;;;;;;5281523;28;20031;-73
2022/01/25 11:22:21;;;;;;;0.40;0.40;;;2.40;99.90;;;;;;5244864;28;20028;-72
2022/01/25 11:24:58;;;;;;;0.77;0.77;;;2.50;99.90;;;;;;5275203;28;20019;-72
2022/01/25 11:27:31;;;;;;;1.02;1.02;;;2.40;99.90;;;;;;5278269;28;20015;-74
2022/01/25 11:30:23;;;;;;;0.93;0.93;;;2.40;99.90;;;;;;5272176;28;20015;-73
2022/01/25 11:32:55;;;;;;;0.60;0.60;;;2.60;99.90;;;;;;5265355;28;20070;-72
2022/01/25 11:35:28;;;;;;;1.50;1.30;;;2.50;99.90;;;;;;5265866;28;20020;-72
2022/01/25 11:38:04;;;;;;;0.50;0.50;;;2.60;99.90;;;;;;5281418;28;20051;-73
2022/01/25 11:40:46;;;;;;;0.50;0.50;;;2.60;99.90;;;;;;5288749;27;20106;-73
2022/01/25 11:43:19;;;;;;;0.50;0.50;;;2.50;99.90;;;;;;5265371;28;20333;-72
2022/01/25 11:45:52;;;;;;;0.60;0.60;;;2.50;99.90;;;;;;5282401;28;20047;-73
2022/01/25 11:48:41;;;;;;;0.70;0.70;;;2.40;99.90;;;;;;5284483;28;20094;-73
2022/01/25 11:51:20;;;;;;;1.02;1.02;;;2.50;99.90;;;;;;5284184;28;20031;-73
2022/01/25 11:53:51;;;;;;;1.02;1.02;;;2.60;99.90;;;;;;5244873;28;20016;-73
2022/01/25 11:56:27;;;;;;;0.95;0.90;;;2.60;99.90;;;;;;5282572;28;20030;-73
2022/01/25 11:59:05;;;;;;;0.40;0.40;;;2.50;99.90;;;;;;5265677;28;20042;-74
2022/01/25 12:01:36;;;;;;;0.60;0.60;;;2.60;99.90;;;;;;5263196;28;20046;-74
2022/01/25 12:04:11;;;;;;;6.38;3.72;;;2.60;99.90;;;;;;5271593;28;20305;-73
2022/01/25 12:06:59;;;;;;;0.57;0.57;;;2.50;99.90;;;;;;5253612;28;20043;-73
2022/01/25 12:09:51;;;;;;;0.50;0.50;;;2.50;99.90;;;;;;5263634;28;20035;-74
2022/01/25 12:12:33;;;;;;;0.40;0.40;;;2.60;99.90;;;;;;5282023;28;20361;-74
2022/01/25 12:15:17;;;;;;;0.70;0.70;;;2.60;99.90;;;;;;5263768;28;20089;-74
2022/01/25 12:17:58;;;;;;;0.50;0.50;;;2.60;99.90;;;;;;5281205;28;20046;-74
2022/01/25 12:20:30;;;;;;;0.65;0.65;;;2.60;99.90;;;;;;5281399;28;20568;-73
2022/01/25 12:23:06;;;;;;;0.40;0.40;;;2.50;99.90;;;;;;5260188;28;20027;-73
2022/01/25 12:25:50;;;;;;;0.60;0.60;;;2.30;99.90;;;;;;5282093;28;20034;-74
2022/01/25 12:28:33;;;;;;;0.60;0.60;;;2.40;99.90;;;;;;5281691;28;20076;-74
2022/01/25 12:31:15;;;;;;;1.33;1.23;;;2.40;99.90;;;;;;5273562;28;20215;-74
2022/01/25 12:33:49;;;;;;;0.57;0.57;;;2.40;99.90;;;;;;5259634;28;20081;-74
2022/01/25 12:36:35;;;;;;;0.50;0.50;;;2.40;99.90;;;;;;5279581;28;20455;-74
2022/01/25 12:39:16;;;;;;;0.60;0.60;;;2.30;99.90;;;;;;5283460;28;20079;-73
2022/01/25 12:41:46;;;;;;;0.40;0.40;;;2.30;99.90;;;;;;5284280;28;20012;-74
2022/01/25 12:44:23;;;;;;;1.10;0.93;;;2.40;99.90;;;;;;5281324;28;20040;-74
2022/01/25 12:46:54;;;;;;;0.60;0.60;;;2.40;99.90;;;;;;5277825;28;20081;-74
2022/01/25 12:49:27;;;;;;;0.50;0.50;;;2.40;99.90;;;;;;5282133;28;20252;-74
2022/01/25 12:52:07;;;;;;;1.05;1.05;;;2.40;99.90;;;;;;5280768;28;20015;-74
2022/01/25 12:54:38;;;;;;;0.40;0.40;;;2.40;99.90;;;;;;5266243;28;20314;-74
2022/01/25 12:57:13;;;;;;;0.52;0.52;;;2.40;99.90;;;;;;5266774;28;20035;-74
2022/01/25 12:59:52;;;;;;;0.65;0.65;;;2.40;99.90;;;;;;5267547;28;20083;-74
2022/01/25 13:02:24;;;;;;;0.50;0.50;;;2.50;99.90;;;;;;5272274;28;20019;-74
2022/01/25 13:05:00;;;;;;;0.63;0.63;;;2.50;99.90;;;;;;5266024;28;20260;-74
2022/01/25 13:07:31;;;;;;;0.98;0.98;;;2.50;99.90;;;;;;5286750;28;20031;-75
2022/01/25 13:10:06;;;;;;;0.65;0.65;;;2.50;99.90;;;;;;5269440;28;20026;-74
2022/01/25 13:12:54;;;;;;;0.73;0.73;;;2.50;99.90;;;;;;5294423;27;20007;-74
2022/01/25 13:16:12;;;;;;;0.55;0.55;;;2.40;99.90;;;;;;5281800;28;20466;-75
2022/01/25 13:18:23;;;;;;;1.10;1.10;;;2.40;99.90;;;;;;5274279;28;20464;-74
2022/01/25 13:21:06;;;;;;;0.60;0.60;;;2.40;99.90;;;;;;5246559;28;20073;-74
2022/01/25 13:23:50;;;;;;;0.60;0.60;;;2.40;99.90;;;;;;5282766;28;20031;-75
2022/01/25 13:26:22;;;;;;;0.60;0.60;;;2.40;99.90;;;;;;5283911;28;20526;-74
2022/01/25 13:28:56;;;;;;;1.50;1.40;;;2.50;99.90;;;;;;5284160;28;20038;-74
2022/01/25 13:31:27;;;;;;;0.52;0.52;;;2.50;99.90;;;;;;5282963;28;20016;-74
2022/01/25 13:34:01;;;;;;;0.70;0.70;;;2.50;99.90;;;;;;5279283;28;20023;-75
2022/01/25 13:36:40;;;;;;;0.60;0.60;;;2.50;99.90;;;;;;5254533;28;20125;-75
2022/01/25 13:39:14;;;;;;;0.50;0.50;;;2.40;99.90;;;;;;5247701;28;20044;-74
2022/01/25 13:41:53;;;;;;;1.25;1.25;;;2.40;99.90;;;;;;5265487;28;20038;-74
2022/01/25 13:47:20;;;;;;;1.13;1.13;;;2.50;99.90;;;;;;5283286;28;20042;-74
2022/01/25 13:49:56;;;;;;;0.50;0.50;;;2.40;99.90;;;;;;5283579;28;20030;-74
2022/01/25 13:52:32;;;;;;;0.60;0.60;;;2.50;99.90;;;;;;5283603;28;20027;-73
2022/01/25 13:55:10;;;;;;;0.60;0.60;;;2.50;99.90;;;;;;5283112;28;20027;-76
2022/01/25 13:57:41;;;;;;;1.30;1.30;;;2.50;99.90;;;;;;5282529;28;20015;-76
2022/01/25 14:00:12;;;;;;;0.50;0.50;;;2.50;99.90;;;;;;5264985;28;20023;-75
2022/01/25 14:02:51;;;;;;;1.02;1.00;;;2.50;99.90;;;;;;5277917;28;20034;-76
2022/01/25 14:05:25;;;;;;;0.60;0.60;;;2.50;99.90;;;;;;5252595;28;20055;-74
2022/01/25 14:07:56;;;;;;;;;;;2.40;99.90;;;;;;5282433;28;20477;-75
2022/01/25 14:10:28;;;;;;;0.50;0.50;;;2.40;99.90;;;;;;5265017;28;19979;-75
2022/01/25 14:21:55;;;;;;;0.40;0.40;;;2.40;99.90;;;;;;5265733;28;20035;-75
2022/01/25 14:24:34;;;;;;;0.50;0.50;;;2.40;99.90;;;;;;5284064;28;20069;-74
2022/01/25 14:27:19;;;;;;;0.60;0.60;;;2.40;99.90;;;;;;5284437;28;20091;-75
2022/01/25 14:29:56;;;;;;;0.98;0.98;;;2.40;99.90;;;;;;5274406;28;20040;-74
2022/01/25 14:32:31;;;;;;;1.08;1.05;;;2.40;99.90;;;;;;5274899;28;20020;-74
2022/01/25 14:35:10;;;;;;;0.50;0.50;;;2.40;99.90;;;;;;5282289;28;20031;-75
2022/01/25 14:37:49;;;;;;;0.63;0.63;;;2.30;99.90;;;;;;5283895;28;20085;-75
2022/01/25 14:40:20;;;;;;;0.65;0.65;;;2.40;99.90;;;;;;5282796;28;20024;-75
2022/01/25 14:42:54;;;;;;;0.68;0.68;;;2.40;99.90;;;;;;5281933;28;20026;-75
2022/01/25 14:45:27;;;;;;;0.90;0.90;;;2.30;99.90;;;;;;5275821;28;20064;-75
2022/01/25 14:48:00;;;;;;;0.40;0.40;;;2.30;99.90;;;;;;5263819;28;20538;-74
2022/01/25 14:50:34;;;;;;;0.65;0.65;;;2.30;99.90;;;;;;5264161;28;20032;-75
2022/01/25 14:53:14;;;;;;;1.25;1.25;;;2.30;99.90;;;;;;5264024;28;20020;-75
2022/01/25 14:55:45;;;;;;;0.82;0.82;;;2.30;99.90;;;;;;5280554;28;20020;-75
2022/01/25 15:00:58;;;;;;;0.60;0.60;;;2.30;99.90;;;;;;5280591;27;20352;-75
2022/01/25 15:03:34;;;;;;;0.47;0.47;;;2.40;99.90;;;;;;5278432;28;20496;-74
2022/01/25 15:06:05;;;;;;;0.65;0.65;;;2.40;99.90;;;;;;5245121;28;20131;-75
2022/01/25 15:08:38;;;;;;;0.40;0.40;;;2.30;99.90;;;;;;5262313;28;20054;-75
2022/01/25 15:11:09;;;;;;;1.10;1.00;;;2.40;99.90;;;;;;5264510;28;20074;-75
2022/01/25 15:13:42;;;;;;;0.98;0.82;;;2.30;99.90;;;;;;5262316;28;20035;-75
2022/01/25 15:16:13;;;;;;;0.57;0.57;;;2.20;99.90;;;;;;5281382;28;20023;-75
2022/01/25 15:18:47;;;;;;;0.50;0.50;;;2.20;99.90;;;;;;5263607;28;20030;-76
2022/01/25 15:21:18;;;;;;;0.88;0.88;;;2.30;99.90;;;;;;5281452;28;20020;-77
2022/01/25 15:23:59;;;;;;;0.60;0.60;;;2.20;99.90;;;;;;5282163;27;20031;-78
2022/01/25 15:26:36;;;;;;;0.70;0.70;;;2.30;99.90;;;;;;5302106;27;20027;-75
2022/01/25 15:29:08;;;;;;;0.80;0.80;;;2.20;99.90;;;;;;5276930;27;20045;-75
2022/01/25 15:31:39;;;;;;;0.50;0.50;;;2.30;99.90;;;;;;5253401;28;20029;-75
2022/01/25 15:34:09;;;;;;;0.55;0.55;;;2.20;99.90;;;;;;5273447;28;20066;-77